Bom Jardim de Minas, Brazil
Current Conditions -  °F | °C
As of 10:00 AM on Thursday 30 Oct 2014 (Local Time) from SBBQ Reporting Station
Broken Clouds Broken Clouds  
Wind Chill: 72°   Ceiling: 1500
Heat Index: 72°   Visibility: 6mi
Dew Point: 59°   Wind: 9mph
Humidity: 64%   Direction: 350°N
Pressure: 30.12"   Gusts: NA
Location:  21.95°S, 44.19°W
Report Text: SBBQ 301200Z 35008KT 9999 BKN015 22/15 Q1020
Loading
Personal Weather Stations






























Interactive Weather Map
Tropical Storm Tracking
New forecast layout! Learn more

10-Day Weather Forecast

Advertisements
Track Severe Weather on mobile